sensor_id;sensor_type;location;lat;lon;timestamp;P1;durP1;ratioP1;P2;durP2;ratioP2
54823;SDS011;40724;53.196;5.980;2024-02-21T00:00:03;9.43;;;4.07;;
54823;SDS011;40724;53.196;5.980;2024-02-21T00:02:30;9.20;;;3.60;;
54823;SDS011;40724;53.196;5.980;2024-02-21T00:04:56;11.18;;;3.78;;
54823;SDS011;40724;53.196;5.980;2024-02-21T00:07:22;16.10;;;4.53;;
54823;SDS011;40724;53.196;5.980;2024-02-21T00:09:48;11.20;;;4.25;;
54823;SDS011;40724;53.196;5.980;2024-02-21T00:12:15;11.00;;;4.18;;
54823;SDS011;40724;53.196;5.980;2024-02-21T00:14:41;9.40;;;3.60;;
54823;SDS011;40724;53.196;5.980;2024-02-21T00:17:07;13.63;;;4.43;;
54823;SDS011;40724;53.196;5.980;2024-02-21T00:19:33;12.95;;;5.20;;
54823;SDS011;40724;53.196;5.980;2024-02-21T00:22:00;17.13;;;5.43;;
54823;SDS011;40724;53.196;5.980;2024-02-21T00:24:26;10.80;;;4.70;;
54823;SDS011;40724;53.196;5.980;2024-02-21T00:26:53;13.45;;;5.03;;
54823;SDS011;40724;53.196;5.980;2024-02-21T00:29:19;13.48;;;4.22;;
54823;SDS011;40724;53.196;5.980;2024-02-21T00:31:45;14.45;;;4.30;;
54823;SDS011;40724;53.196;5.980;2024-02-21T00:34:11;16.13;;;4.43;;
54823;SDS011;40724;53.196;5.980;2024-02-21T00:36:38;17.30;;;5.55;;
54823;SDS011;40724;53.196;5.980;2024-02-21T00:39:04;12.80;;;4.10;;
54823;SDS011;40724;53.196;5.980;2024-02-21T00:41:31;15.73;;;4.53;;
54823;SDS011;40724;53.196;5.980;2024-02-21T00:43:58;12.30;;;5.07;;
54823;SDS011;40724;53.196;5.980;2024-02-21T00:46:24;21.75;;;6.15;;
54823;SDS011;40724;53.196;5.980;2024-02-21T00:48:50;11.10;;;3.80;;
54823;SDS011;40724;53.196;5.980;2024-02-21T00:51:16;15.32;;;5.13;;
54823;SDS011;40724;53.196;5.980;2024-02-21T00:53:42;16.08;;;4.38;;
54823;SDS011;40724;53.196;5.980;2024-02-21T00:56:09;12.05;;;4.82;;
54823;SDS011;40724;53.196;5.980;2024-02-21T00:58:35;16.52;;;4.28;;
54823;SDS011;40724;53.196;5.980;2024-02-21T01:01:01;19.35;;;5.00;;
54823;SDS011;40724;53.196;5.980;2024-02-21T01:03:28;16.08;;;4.78;;
54823;SDS011;40724;53.196;5.980;2024-02-21T01:05:54;16.25;;;5.35;;
54823;SDS011;40724;53.196;5.980;2024-02-21T01:08:20;25.05;;;5.25;;
54823;SDS011;40724;53.196;5.980;2024-02-21T01:10:46;17.50;;;5.43;;
54823;SDS011;40724;53.196;5.980;2024-02-21T01:13:12;14.30;;;5.55;;
54823;SDS011;40724;53.196;5.980;2024-02-21T01:15:39;16.58;;;5.05;;
54823;SDS011;40724;53.196;5.980;2024-02-21T01:18:05;18.60;;;5.07;;
54823;SDS011;40724;53.196;5.980;2024-02-21T01:20:31;13.32;;;4.78;;
54823;SDS011;40724;53.196;5.980;2024-02-21T01:22:57;10.82;;;4.80;;
54823;SDS011;40724;53.196;5.980;2024-02-21T01:25:23;16.42;;;5.47;;
54823;SDS011;40724;53.196;5.980;2024-02-21T01:27:50;10.70;;;4.95;;
54823;SDS011;40724;53.196;5.980;2024-02-21T01:30:16;14.57;;;5.20;;
54823;SDS011;40724;53.196;5.980;2024-02-21T01:32:43;10.20;;;4.93;;
54823;SDS011;40724;53.196;5.980;2024-02-21T01:35:09;13.35;;;5.95;;
54823;SDS011;40724;53.196;5.980;2024-02-21T01:37:35;18.77;;;6.05;;
54823;SDS011;40724;53.196;5.980;2024-02-21T01:40:01;15.88;;;6.45;;
54823;SDS011;40724;53.196;5.980;2024-02-21T01:42:28;16.08;;;6.28;;
54823;SDS011;40724;53.196;5.980;2024-02-21T01:44:54;11.57;;;5.18;;
54823;SDS011;40724;53.196;5.980;2024-02-21T01:47:20;14.15;;;5.80;;
54823;SDS011;40724;53.196;5.980;2024-02-21T01:49:46;17.48;;;6.53;;
54823;SDS011;40724;53.196;5.980;2024-02-21T01:52:14;10.95;;;5.70;;
54823;SDS011;40724;53.196;5.980;2024-02-21T01:54:41;17.27;;;5.57;;
54823;SDS011;40724;53.196;5.980;2024-02-21T01:57:07;15.25;;;5.85;;
54823;SDS011;40724;53.196;5.980;2024-02-21T01:59:34;13.23;;;6.32;;
54823;SDS011;40724;53.196;5.980;2024-02-21T02:02:01;10.40;;;4.78;;
54823;SDS011;40724;53.196;5.980;2024-02-21T02:04:27;21.42;;;6.80;;
54823;SDS011;40724;53.196;5.980;2024-02-21T02:06:55;13.45;;;4.75;;
54823;SDS011;40724;53.196;5.980;2024-02-21T02:09:21;17.13;;;7.00;;
54823;SDS011;40724;53.196;5.980;2024-02-21T02:11:47;15.32;;;5.25;;
54823;SDS011;40724;53.196;5.980;2024-02-21T02:14:13;13.27;;;5.70;;
54823;SDS011;40724;53.196;5.980;2024-02-21T02:16:39;14.20;;;6.35;;
54823;SDS011;40724;53.196;5.980;2024-02-21T02:19:06;23.33;;;6.70;;
54823;SDS011;40724;53.196;5.980;2024-02-21T02:21:32;18.70;;;5.43;;
54823;SDS011;40724;53.196;5.980;2024-02-21T02:24:00;16.73;;;5.30;;
54823;SDS011;40724;53.196;5.980;2024-02-21T02:26:26;10.25;;;4.68;;
54823;SDS011;40724;53.196;5.980;2024-02-21T02:28:53;17.08;;;5.82;;
54823;SDS011;40724;53.196;5.980;2024-02-21T02:31:19;20.98;;;6.40;;
54823;SDS011;40724;53.196;5.980;2024-02-21T02:33:45;18.65;;;6.13;;
54823;SDS011;40724;53.196;5.980;2024-02-21T02:36:11;18.92;;;7.20;;
54823;SDS011;40724;53.196;5.980;2024-02-21T02:38:37;11.18;;;5.43;;
54823;SDS011;40724;53.196;5.980;2024-02-21T02:41:03;16.23;;;6.05;;
54823;SDS011;40724;53.196;5.980;2024-02-21T02:43:29;15.77;;;6.28;;
54823;SDS011;40724;53.196;5.980;2024-02-21T02:45:56;13.48;;;5.80;;
54823;SDS011;40724;53.196;5.980;2024-02-21T02:48:22;14.57;;;5.90;;
54823;SDS011;40724;53.196;5.980;2024-02-21T02:50:49;18.70;;;7.15;;
54823;SDS011;40724;53.196;5.980;2024-02-21T02:53:15;15.13;;;5.30;;
54823;SDS011;40724;53.196;5.980;2024-02-21T02:55:41;12.68;;;5.32;;
54823;SDS011;40724;53.196;5.980;2024-02-21T02:58:07;19.38;;;6.38;;
54823;SDS011;40724;53.196;5.980;2024-02-21T03:00:34;21.83;;;6.03;;
54823;SDS011;40724;53.196;5.980;2024-02-21T03:03:01;18.48;;;6.05;;
54823;SDS011;40724;53.196;5.980;2024-02-21T03:05:30;17.13;;;6.72;;
54823;SDS011;40724;53.196;5.980;2024-02-21T03:07:56;9.60;;;5.10;;
54823;SDS011;40724;53.196;5.980;2024-02-21T03:10:23;16.23;;;6.35;;
54823;SDS011;40724;53.196;5.980;2024-02-21T03:12:50;14.13;;;5.68;;
54823;SDS011;40724;53.196;5.980;2024-02-21T03:15:18;20.88;;;7.07;;
54823;SDS011;40724;53.196;5.980;2024-02-21T03:17:44;23.00;;;7.30;;
54823;SDS011;40724;53.196;5.980;2024-02-21T03:20:10;19.27;;;6.63;;
54823;SDS011;40724;53.196;5.980;2024-02-21T03:22:37;14.48;;;6.10;;
54823;SDS011;40724;53.196;5.980;2024-02-21T03:25:03;10.18;;;5.40;;
54823;SDS011;40724;53.196;5.980;2024-02-21T03:27:29;12.40;;;5.68;;
54823;SDS011;40724;53.196;5.980;2024-02-21T03:29:56;15.88;;;6.47;;
54823;SDS011;40724;53.196;5.980;2024-02-21T03:32:22;18.27;;;5.90;;
54823;SDS011;40724;53.196;5.980;2024-02-21T03:34:48;13.30;;;5.47;;
54823;SDS011;40724;53.196;5.980;2024-02-21T03:37:14;12.48;;;5.45;;
54823;SDS011;40724;53.196;5.980;2024-02-21T03:39:40;20.17;;;6.47;;
54823;SDS011;40724;53.196;5.980;2024-02-21T03:42:06;13.73;;;6.28;;
54823;SDS011;40724;53.196;5.980;2024-02-21T03:44:33;19.98;;;5.97;;
54823;SDS011;40724;53.196;5.980;2024-02-21T03:46:59;21.65;;;7.82;;
54823;SDS011;40724;53.196;5.980;2024-02-21T03:49:25;16.48;;;6.35;;
54823;SDS011;40724;53.196;5.980;2024-02-21T03:51:51;18.08;;;6.03;;
54823;SDS011;40724;53.196;5.980;2024-02-21T03:54:18;15.00;;;5.93;;
54823;SDS011;40724;53.196;5.980;2024-02-21T03:56:44;15.40;;;6.72;;
54823;SDS011;40724;53.196;5.980;2024-02-21T03:59:12;14.77;;;6.78;;
54823;SDS011;40724;53.196;5.980;2024-02-21T04:01:39;15.70;;;7.00;;
54823;SDS011;40724;53.196;5.980;2024-02-21T04:04:05;16.65;;;7.38;;
54823;SDS011;40724;53.196;5.980;2024-02-21T04:06:31;19.02;;;6.88;;
54823;SDS011;40724;53.196;5.980;2024-02-21T04:08:58;19.13;;;6.78;;
54823;SDS011;40724;53.196;5.980;2024-02-21T04:11:24;15.60;;;5.97;;
54823;SDS011;40724;53.196;5.980;2024-02-21T04:13:50;12.65;;;5.22;;
54823;SDS011;40724;53.196;5.980;2024-02-21T04:16:17;9.25;;;5.22;;
54823;SDS011;40724;53.196;5.980;2024-02-21T04:18:43;12.30;;;5.90;;
54823;SDS011;40724;53.196;5.980;2024-02-21T04:21:10;22.63;;;6.07;;
54823;SDS011;40724;53.196;5.980;2024-02-21T04:23:36;18.50;;;5.95;;
54823;SDS011;40724;53.196;5.980;2024-02-21T04:26:02;11.10;;;5.72;;
54823;SDS011;40724;53.196;5.980;2024-02-21T04:28:28;12.40;;;5.35;;
54823;SDS011;40724;53.196;5.980;2024-02-21T04:30:54;14.07;;;5.18;;
54823;SDS011;40724;53.196;5.980;2024-02-21T04:33:20;13.85;;;4.90;;
54823;SDS011;40724;53.196;5.980;2024-02-21T04:35:46;16.65;;;5.70;;
54823;SDS011;40724;53.196;5.980;2024-02-21T04:38:13;14.18;;;6.00;;
54823;SDS011;40724;53.196;5.980;2024-02-21T04:40:40;13.70;;;4.97;;
54823;SDS011;40724;53.196;5.980;2024-02-21T04:43:06;13.98;;;6.78;;
54823;SDS011;40724;53.196;5.980;2024-02-21T04:45:32;17.17;;;6.28;;
54823;SDS011;40724;53.196;5.980;2024-02-21T04:47:58;14.43;;;4.95;;
54823;SDS011;40724;53.196;5.980;2024-02-21T04:50:24;17.27;;;6.43;;
54823;SDS011;40724;53.196;5.980;2024-02-21T04:52:50;18.27;;;5.05;;
54823;SDS011;40724;53.196;5.980;2024-02-21T04:55:16;14.50;;;5.25;;
54823;SDS011;40724;53.196;5.980;2024-02-21T04:57:42;15.57;;;5.40;;
54823;SDS011;40724;53.196;5.980;2024-02-21T05:00:09;14.43;;;4.82;;
54823;SDS011;40724;53.196;5.980;2024-02-21T05:02:35;18.98;;;5.90;;
54823;SDS011;40724;53.196;5.980;2024-02-21T05:05:02;17.40;;;5.00;;
54823;SDS011;40724;53.196;5.980;2024-02-21T05:07:28;17.50;;;5.63;;
54823;SDS011;40724;53.196;5.980;2024-02-21T05:09:54;31.27;;;8.73;;
54823;SDS011;40724;53.196;5.980;2024-02-21T05:12:20;15.73;;;5.40;;
54823;SDS011;40724;53.196;5.980;2024-02-21T05:14:46;13.32;;;4.88;;
54823;SDS011;40724;53.196;5.980;2024-02-21T05:17:13;12.93;;;4.88;;
54823;SDS011;40724;53.196;5.980;2024-02-21T05:19:39;13.52;;;5.25;;
54823;SDS011;40724;53.196;5.980;2024-02-21T05:22:05;16.25;;;6.03;;
54823;SDS011;40724;53.196;5.980;2024-02-21T05:24:31;13.93;;;4.63;;
54823;SDS011;40724;53.196;5.980;2024-02-21T05:26:57;20.10;;;5.47;;
54823;SDS011;40724;53.196;5.980;2024-02-21T05:29:23;16.70;;;5.35;;
54823;SDS011;40724;53.196;5.980;2024-02-21T05:34:19;13.93;;;5.13;;
54823;SDS011;40724;53.196;5.980;2024-02-21T05:36:46;15.57;;;6.28;;
54823;SDS011;40724;53.196;5.980;2024-02-21T05:39:15;17.38;;;6.53;;
54823;SDS011;40724;53.196;5.980;2024-02-21T05:41:42;15.13;;;5.20;;
54823;SDS011;40724;53.196;5.980;2024-02-21T05:44:08;20.65;;;6.63;;
54823;SDS011;40724;53.196;5.980;2024-02-21T05:46:34;11.55;;;6.05;;
54823;SDS011;40724;53.196;5.980;2024-02-21T05:49:00;11.55;;;5.50;;
54823;SDS011;40724;53.196;5.980;2024-02-21T05:51:26;18.15;;;6.05;;
54823;SDS011;40724;53.196;5.980;2024-02-21T05:53:52;22.98;;;7.25;;
54823;SDS011;40724;53.196;5.980;2024-02-21T05:56:18;13.23;;;5.15;;
54823;SDS011;40724;53.196;5.980;2024-02-21T05:58:45;10.23;;;5.40;;
54823;SDS011;40724;53.196;5.980;2024-02-21T06:01:11;17.38;;;6.13;;
54823;SDS011;40724;53.196;5.980;2024-02-21T06:03:37;14.70;;;5.13;;
54823;SDS011;40724;53.196;5.980;2024-02-21T06:06:03;16.10;;;5.70;;
54823;SDS011;40724;53.196;5.980;2024-02-21T06:08:30;17.17;;;6.47;;
54823;SDS011;40724;53.196;5.980;2024-02-21T06:10:56;18.30;;;6.03;;
54823;SDS011;40724;53.196;5.980;2024-02-21T06:13:25;15.57;;;5.85;;
54823;SDS011;40724;53.196;5.980;2024-02-21T06:15:51;14.50;;;4.88;;
54823;SDS011;40724;53.196;5.980;2024-02-21T06:18:17;14.07;;;5.03;;
54823;SDS011;40724;53.196;5.980;2024-02-21T06:20:44;14.07;;;6.65;;
54823;SDS011;40724;53.196;5.980;2024-02-21T06:23:11;17.02;;;5.47;;
54823;SDS011;40724;53.196;5.980;2024-02-21T06:25:38;16.40;;;5.72;;
54823;SDS011;40724;53.196;5.980;2024-02-21T06:28:04;15.35;;;5.63;;
54823;SDS011;40724;53.196;5.980;2024-02-21T06:30:30;18.08;;;5.82;;
54823;SDS011;40724;53.196;5.980;2024-02-21T06:32:57;21.25;;;7.47;;
54823;SDS011;40724;53.196;5.980;2024-02-21T06:35:24;13.95;;;6.65;;
54823;SDS011;40724;53.196;5.980;2024-02-21T06:37:50;14.32;;;5.75;;
54823;SDS011;40724;53.196;5.980;2024-02-21T06:40:20;14.00;;;5.50;;
54823;SDS011;40724;53.196;5.980;2024-02-21T06:42:46;20.27;;;6.43;;
54823;SDS011;40724;53.196;5.980;2024-02-21T06:45:13;13.98;;;5.10;;
54823;SDS011;40724;53.196;5.980;2024-02-21T06:47:39;22.65;;;7.30;;
54823;SDS011;40724;53.196;5.980;2024-02-21T06:50:05;15.27;;;7.00;;
54823;SDS011;40724;53.196;5.980;2024-02-21T06:52:31;19.67;;;7.35;;
54823;SDS011;40724;53.196;5.980;2024-02-21T06:54:57;14.98;;;5.53;;
54823;SDS011;40724;53.196;5.980;2024-02-21T06:57:23;16.77;;;6.28;;
54823;SDS011;40724;53.196;5.980;2024-02-21T06:59:49;16.77;;;6.03;;
54823;SDS011;40724;53.196;5.980;2024-02-21T07:02:15;17.88;;;6.25;;
54823;SDS011;40724;53.196;5.980;2024-02-21T07:04:42;20.92;;;7.88;;
54823;SDS011;40724;53.196;5.980;2024-02-21T07:07:08;15.00;;;6.28;;
54823;SDS011;40724;53.196;5.980;2024-02-21T07:09:35;19.23;;;7.40;;
54823;SDS011;40724;53.196;5.980;2024-02-21T07:12:01;19.25;;;7.38;;
54823;SDS011;40724;53.196;5.980;2024-02-21T07:14:35;15.77;;;6.18;;
54823;SDS011;40724;53.196;5.980;2024-02-21T07:17:01;15.43;;;7.07;;
54823;SDS011;40724;53.196;5.980;2024-02-21T07:19:28;20.13;;;8.20;;
54823;SDS011;40724;53.196;5.980;2024-02-21T07:21:55;25.13;;;8.55;;
54823;SDS011;40724;53.196;5.980;2024-02-21T07:24:21;18.88;;;8.35;;
54823;SDS011;40724;53.196;5.980;2024-02-21T07:26:48;19.98;;;7.72;;
54823;SDS011;40724;53.196;5.980;2024-02-21T07:29:14;25.60;;;10.70;;
54823;SDS011;40724;53.196;5.980;2024-02-21T07:31:43;20.73;;;8.95;;
54823;SDS011;40724;53.196;5.980;2024-02-21T07:34:09;22.80;;;9.13;;
54823;SDS011;40724;53.196;5.980;2024-02-21T07:36:35;23.85;;;10.38;;
54823;SDS011;40724;53.196;5.980;2024-02-21T07:39:05;19.45;;;8.77;;
54823;SDS011;40724;53.196;5.980;2024-02-21T07:41:31;23.48;;;11.65;;
54823;SDS011;40724;53.196;5.980;2024-02-21T07:43:58;30.17;;;9.80;;
54823;SDS011;40724;53.196;5.980;2024-02-21T07:46:24;22.95;;;10.50;;
54823;SDS011;40724;53.196;5.980;2024-02-21T07:48:51;18.75;;;11.13;;
54823;SDS011;40724;53.196;5.980;2024-02-21T07:51:17;24.42;;;11.95;;
54823;SDS011;40724;53.196;5.980;2024-02-21T07:53:44;20.02;;;10.70;;
54823;SDS011;40724;53.196;5.980;2024-02-21T07:56:13;26.58;;;10.75;;
54823;SDS011;40724;53.196;5.980;2024-02-21T07:58:40;25.90;;;10.13;;
54823;SDS011;40724;53.196;5.980;2024-02-21T08:01:06;25.15;;;10.88;;
54823;SDS011;40724;53.196;5.980;2024-02-21T08:03:32;26.27;;;10.73;;
54823;SDS011;40724;53.196;5.980;2024-02-21T08:05:58;24.70;;;9.18;;
54823;SDS011;40724;53.196;5.980;2024-02-21T08:08:25;24.30;;;11.20;;
54823;SDS011;40724;53.196;5.980;2024-02-21T08:10:51;20.92;;;9.20;;
54823;SDS011;40724;53.196;5.980;2024-02-21T08:13:17;21.42;;;9.15;;
54823;SDS011;40724;53.196;5.980;2024-02-21T08:15:44;22.25;;;7.97;;
54823;SDS011;40724;53.196;5.980;2024-02-21T08:18:10;19.88;;;8.63;;
54823;SDS011;40724;53.196;5.980;2024-02-21T08:20:36;17.17;;;8.68;;
54823;SDS011;40724;53.196;5.980;2024-02-21T08:23:02;22.50;;;8.60;;
54823;SDS011;40724;53.196;5.980;2024-02-21T08:25:28;18.02;;;8.00;;
54823;SDS011;40724;53.196;5.980;2024-02-21T08:27:58;16.55;;;8.18;;
54823;SDS011;40724;53.196;5.980;2024-02-21T08:30:24;15.82;;;8.25;;
54823;SDS011;40724;53.196;5.980;2024-02-21T08:32:51;13.45;;;8.15;;
54823;SDS011;40724;53.196;5.980;2024-02-21T08:35:19;18.25;;;6.70;;
54823;SDS011;40724;53.196;5.980;2024-02-21T08:37:47;14.40;;;7.40;;
54823;SDS011;40724;53.196;5.980;2024-02-21T08:40:14;16.92;;;7.60;;
54823;SDS011;40724;53.196;5.980;2024-02-21T08:42:44;18.38;;;9.27;;
54823;SDS011;40724;53.196;5.980;2024-02-21T08:45:11;22.35;;;9.48;;
54823;SDS011;40724;53.196;5.980;2024-02-21T08:47:39;25.13;;;9.45;;
54823;SDS011;40724;53.196;5.980;2024-02-21T08:50:06;22.88;;;11.13;;
54823;SDS011;40724;53.196;5.980;2024-02-21T08:52:32;18.77;;;10.63;;
54823;SDS011;40724;53.196;5.980;2024-02-21T08:54:58;27.02;;;12.73;;
54823;SDS011;40724;53.196;5.980;2024-02-21T08:57:24;26.92;;;10.68;;
54823;SDS011;40724;53.196;5.980;2024-02-21T08:59:50;20.25;;;11.57;;
54823;SDS011;40724;53.196;5.980;2024-02-21T09:02:17;24.88;;;12.30;;
54823;SDS011;40724;53.196;5.980;2024-02-21T09:04:43;18.77;;;11.82;;
54823;SDS011;40724;53.196;5.980;2024-02-21T09:07:12;16.63;;;10.73;;
54823;SDS011;40724;53.196;5.980;2024-02-21T09:09:38;29.02;;;13.68;;
54823;SDS011;40724;53.196;5.980;2024-02-21T09:12:06;23.48;;;12.80;;
54823;SDS011;40724;53.196;5.980;2024-02-21T09:14:32;23.50;;;11.93;;
54823;SDS011;40724;53.196;5.980;2024-02-21T09:16:58;23.38;;;12.90;;
54823;SDS011;40724;53.196;5.980;2024-02-21T09:19:24;18.63;;;12.02;;
54823;SDS011;40724;53.196;5.980;2024-02-21T09:21:50;20.05;;;12.50;;
54823;SDS011;40724;53.196;5.980;2024-02-21T09:24:17;21.77;;;13.43;;
54823;SDS011;40724;53.196;5.980;2024-02-21T09:26:43;21.10;;;11.80;;
54823;SDS011;40724;53.196;5.980;2024-02-21T09:29:09;20.40;;;12.30;;
54823;SDS011;40724;53.196;5.980;2024-02-21T09:31:36;24.98;;;14.02;;
54823;SDS011;40724;53.196;5.980;2024-02-21T09:34:04;20.75;;;13.50;;
54823;SDS011;40724;53.196;5.980;2024-02-21T09:36:30;20.73;;;14.60;;
54823;SDS011;40724;53.196;5.980;2024-02-21T09:38:56;24.25;;;12.82;;
54823;SDS011;40724;53.196;5.980;2024-02-21T09:41:25;24.90;;;13.35;;
54823;SDS011;40724;53.196;5.980;2024-02-21T09:43:54;19.15;;;13.65;;
54823;SDS011;40724;53.196;5.980;2024-02-21T09:46:36;23.48;;;13.75;;
54823;SDS011;40724;53.196;5.980;2024-02-21T09:49:27;18.55;;;13.77;;
54823;SDS011;40724;53.196;5.980;2024-02-21T09:51:56;22.60;;;14.48;;
54823;SDS011;40724;53.196;5.980;2024-02-21T09:54:23;21.05;;;14.52;;
54823;SDS011;40724;53.196;5.980;2024-02-21T09:56:49;19.10;;;12.73;;
54823;SDS011;40724;53.196;5.980;2024-02-21T09:59:15;23.58;;;14.13;;
54823;SDS011;40724;53.196;5.980;2024-02-21T10:01:42;20.60;;;13.25;;
54823;SDS011;40724;53.196;5.980;2024-02-21T10:04:09;25.35;;;13.52;;
54823;SDS011;40724;53.196;5.980;2024-02-21T10:06:35;27.33;;;15.90;;
54823;SDS011;40724;53.196;5.980;2024-02-21T10:09:07;22.23;;;14.10;;
54823;SDS011;40724;53.196;5.980;2024-02-21T10:11:33;21.75;;;14.00;;
54823;SDS011;40724;53.196;5.980;2024-02-21T10:14:04;25.88;;;14.10;;
54823;SDS011;40724;53.196;5.980;2024-02-21T10:16:31;18.63;;;13.70;;
54823;SDS011;40724;53.196;5.980;2024-02-21T10:18:58;24.75;;;14.70;;
54823;SDS011;40724;53.196;5.980;2024-02-21T10:21:24;20.02;;;13.43;;
54823;SDS011;40724;53.196;5.980;2024-02-21T10:23:51;18.13;;;13.43;;
54823;SDS011;40724;53.196;5.980;2024-02-21T10:26:18;25.17;;;15.30;;
54823;SDS011;40724;53.196;5.980;2024-02-21T10:28:44;25.05;;;14.52;;
54823;SDS011;40724;53.196;5.980;2024-02-21T10:31:20;22.77;;;14.63;;
54823;SDS011;40724;53.196;5.980;2024-02-21T10:33:53;19.55;;;11.82;;
54823;SDS011;40724;53.196;5.980;2024-02-21T10:36:19;21.00;;;14.63;;
54823;SDS011;40724;53.196;5.980;2024-02-21T10:38:45;22.05;;;14.85;;
54823;SDS011;40724;53.196;5.980;2024-02-21T10:41:13;20.10;;;13.05;;
54823;SDS011;40724;53.196;5.980;2024-02-21T10:43:43;21.00;;;13.68;;
54823;SDS011;40724;53.196;5.980;2024-02-21T10:46:12;22.00;;;13.68;;
54823;SDS011;40724;53.196;5.980;2024-02-21T10:48:42;21.15;;;12.35;;
54823;SDS011;40724;53.196;5.980;2024-02-21T10:51:28;20.52;;;12.77;;
54823;SDS011;40724;53.196;5.980;2024-02-21T10:54:13;18.70;;;12.30;;
54823;SDS011;40724;53.196;5.980;2024-02-21T10:56:45;18.02;;;12.02;;
54823;SDS011;40724;53.196;5.980;2024-02-21T10:59:11;17.17;;;11.52;;
54823;SDS011;40724;53.196;5.980;2024-02-21T11:01:39;16.13;;;12.60;;
54823;SDS011;40724;53.196;5.980;2024-02-21T11:04:05;16.80;;;11.88;;
54823;SDS011;40724;53.196;5.980;2024-02-21T11:06:32;23.90;;;12.75;;
54823;SDS011;40724;53.196;5.980;2024-02-21T11:09:08;17.08;;;12.05;;
54823;SDS011;40724;53.196;5.980;2024-02-21T11:11:35;20.88;;;12.48;;
54823;SDS011;40724;53.196;5.980;2024-02-21T11:14:08;20.15;;;13.52;;
54823;SDS011;40724;53.196;5.980;2024-02-21T11:16:41;17.40;;;14.18;;
54823;SDS011;40724;53.196;5.980;2024-02-21T11:19:25;19.23;;;12.25;;
54823;SDS011;40724;53.196;5.980;2024-02-21T11:21:51;22.48;;;13.40;;
54823;SDS011;40724;53.196;5.980;2024-02-21T11:24:31;22.23;;;13.50;;
54823;SDS011;40724;53.196;5.980;2024-02-21T11:27:08;22.50;;;12.73;;
54823;SDS011;40724;53.196;5.980;2024-02-21T11:29:44;20.02;;;13.90;;
54823;SDS011;40724;53.196;5.980;2024-02-21T11:32:11;14.75;;;12.02;;
54823;SDS011;40724;53.196;5.980;2024-02-21T11:34:37;17.98;;;12.30;;
54823;SDS011;40724;53.196;5.980;2024-02-21T11:37:12;16.45;;;12.27;;
54823;SDS011;40724;53.196;5.980;2024-02-21T11:39:41;20.17;;;13.18;;
54823;SDS011;40724;53.196;5.980;2024-02-21T11:42:07;17.48;;;13.13;;
54823;SDS011;40724;53.196;5.980;2024-02-21T11:44:34;21.77;;;13.35;;
54823;SDS011;40724;53.196;5.980;2024-02-21T11:47:02;18.55;;;12.63;;
54823;SDS011;40724;53.196;5.980;2024-02-21T11:49:29;20.52;;;13.00;;
54823;SDS011;40724;53.196;5.980;2024-02-21T11:51:59;19.90;;;13.18;;
54823;SDS011;40724;53.196;5.980;2024-02-21T11:54:26;18.50;;;13.05;;
54823;SDS011;40724;53.196;5.980;2024-02-21T11:56:52;22.95;;;13.70;;
54823;SDS011;40724;53.196;5.980;2024-02-21T11:59:18;20.02;;;13.95;;
54823;SDS011;40724;53.196;5.980;2024-02-21T12:01:44;22.10;;;13.55;;
54823;SDS011;40724;53.196;5.980;2024-02-21T12:04:11;19.35;;;14.88;;
54823;SDS011;40724;53.196;5.980;2024-02-21T12:06:38;18.58;;;13.00;;
54823;SDS011;40724;53.196;5.980;2024-02-21T12:09:07;22.38;;;14.15;;
54823;SDS011;40724;53.196;5.980;2024-02-21T12:11:36;20.58;;;12.95;;
54823;SDS011;40724;53.196;5.980;2024-02-21T12:14:03;18.13;;;13.52;;
54823;SDS011;40724;53.196;5.980;2024-02-21T12:16:30;17.42;;;13.25;;
54823;SDS011;40724;53.196;5.980;2024-02-21T12:18:57;17.05;;;12.50;;
54823;SDS011;40724;53.196;5.980;2024-02-21T12:21:24;17.35;;;12.30;;
54823;SDS011;40724;53.196;5.980;2024-02-21T12:23:50;24.08;;;13.07;;
54823;SDS011;40724;53.196;5.980;2024-02-21T12:26:16;17.67;;;13.27;;
54823;SDS011;40724;53.196;5.980;2024-02-21T12:28:42;19.52;;;13.80;;
54823;SDS011;40724;53.196;5.980;2024-02-21T12:31:08;19.00;;;12.38;;
54823;SDS011;40724;53.196;5.980;2024-02-21T12:33:34;18.20;;;12.18;;
54823;SDS011;40724;53.196;5.980;2024-02-21T12:36:00;19.23;;;12.60;;
54823;SDS011;40724;53.196;5.980;2024-02-21T12:38:29;16.35;;;11.80;;
54823;SDS011;40724;53.196;5.980;2024-02-21T12:40:55;16.58;;;11.80;;
54823;SDS011;40724;53.196;5.980;2024-02-21T12:43:22;15.80;;;12.18;;
54823;SDS011;40724;53.196;5.980;2024-02-21T12:45:48;21.30;;;12.77;;
54823;SDS011;40724;53.196;5.980;2024-02-21T12:48:15;16.27;;;12.27;;
54823;SDS011;40724;53.196;5.980;2024-02-21T12:50:42;15.63;;;11.05;;
54823;SDS011;40724;53.196;5.980;2024-02-21T12:53:13;15.65;;;10.32;;
54823;SDS011;40724;53.196;5.980;2024-02-21T12:55:41;16.10;;;10.88;;
54823;SDS011;40724;53.196;5.980;2024-02-21T12:58:07;14.73;;;10.35;;
54823;SDS011;40724;53.196;5.980;2024-02-21T13:00:34;12.35;;;9.63;;
54823;SDS011;40724;53.196;5.980;2024-02-21T13:03:00;12.60;;;8.73;;
54823;SDS011;40724;53.196;5.980;2024-02-21T13:05:28;15.68;;;9.73;;
54823;SDS011;40724;53.196;5.980;2024-02-21T13:07:54;16.15;;;9.80;;
54823;SDS011;40724;53.196;5.980;2024-02-21T13:10:20;16.88;;;11.20;;
54823;SDS011;40724;53.196;5.980;2024-02-21T13:12:46;14.07;;;9.18;;
54823;SDS011;40724;53.196;5.980;2024-02-21T13:15:12;14.82;;;9.25;;
54823;SDS011;40724;53.196;5.980;2024-02-21T13:17:41;13.80;;;8.93;;
54823;SDS011;40724;53.196;5.980;2024-02-21T13:20:07;11.23;;;8.10;;
54823;SDS011;40724;53.196;5.980;2024-02-21T13:22:33;9.23;;;7.30;;
54823;SDS011;40724;53.196;5.980;2024-02-21T13:25:00;12.25;;;8.48;;
54823;SDS011;40724;53.196;5.980;2024-02-21T13:27:26;12.20;;;7.75;;
54823;SDS011;40724;53.196;5.980;2024-02-21T13:29:52;9.50;;;6.75;;
54823;SDS011;40724;53.196;5.980;2024-02-21T13:32:18;17.40;;;7.00;;
54823;SDS011;40724;53.196;5.980;2024-02-21T13:34:44;13.70;;;6.75;;
54823;SDS011;40724;53.196;5.980;2024-02-21T13:37:11;13.35;;;7.28;;
54823;SDS011;40724;53.196;5.980;2024-02-21T13:39:38;12.35;;;7.07;;
54823;SDS011;40724;53.196;5.980;2024-02-21T13:42:05;13.27;;;7.13;;
54823;SDS011;40724;53.196;5.980;2024-02-21T13:44:31;11.60;;;6.40;;
54823;SDS011;40724;53.196;5.980;2024-02-21T13:46:57;10.05;;;7.43;;
54823;SDS011;40724;53.196;5.980;2024-02-21T13:49:23;8.45;;;6.28;;
54823;SDS011;40724;53.196;5.980;2024-02-21T13:51:50;12.10;;;8.30;;
54823;SDS011;40724;53.196;5.980;2024-02-21T13:54:16;10.20;;;6.57;;
54823;SDS011;40724;53.196;5.980;2024-02-21T13:56:44;10.05;;;7.40;;
54823;SDS011;40724;53.196;5.980;2024-02-21T13:59:13;10.35;;;6.65;;
54823;SDS011;40724;53.196;5.980;2024-02-21T14:01:39;11.00;;;8.00;;
54823;SDS011;40724;53.196;5.980;2024-02-21T14:04:05;10.82;;;7.32;;
54823;SDS011;40724;53.196;5.980;2024-02-21T14:06:32;9.75;;;7.00;;
54823;SDS011;40724;53.196;5.980;2024-02-21T14:08:58;8.77;;;6.78;;
54823;SDS011;40724;53.196;5.980;2024-02-21T14:11:24;11.13;;;6.82;;
54823;SDS011;40724;53.196;5.980;2024-02-21T14:13:50;12.65;;;7.38;;
54823;SDS011;40724;53.196;5.980;2024-02-21T14:16:16;11.38;;;7.80;;
54823;SDS011;40724;53.196;5.980;2024-02-21T14:18:42;9.68;;;6.55;;
54823;SDS011;40724;53.196;5.980;2024-02-21T14:21:09;9.18;;;6.82;;
54823;SDS011;40724;53.196;5.980;2024-02-21T14:23:38;9.38;;;6.85;;
54823;SDS011;40724;53.196;5.980;2024-02-21T14:26:04;12.07;;;6.72;;
54823;SDS011;40724;53.196;5.980;2024-02-21T14:28:31;10.52;;;6.88;;
54823;SDS011;40724;53.196;5.980;2024-02-21T14:31:00;10.90;;;6.40;;